Raynesford, Montana
Current Conditions -  °F | °C
As of 2:56 PM on Friday 31 Oct 2014 (Local Time) from KGFA Reporting Station
Clear Clear  
Wind Chill: 71°   Ceiling: Unl
Heat Index: 71°   Visibility: 10mi
Dew Point: 31°   Wind: 22mph
Humidity: 22%   Direction: 210°SSW
Pressure: 29.7"   Gusts: 29mph
Location:  47.27°N, 110.73°W
Report Text: KGFA 312056Z AUTO 21019G25KT 10SM CLR 22/M01 A2970 RMK AO2 PK WND 19027/1956 SLP062 T02171008 57024
Loading
Personal Weather Stations






























Interactive Weather Map
Tropical Storm Tracking
New forecast layout! Learn more

10-Day Weather Forecast

Advertisements
Track Severe Weather on mobile